Terminal Aerodrome Forecast
Issued by NWS

Current Version | Previous Version | Graphics & Text | Print | Product List | Glossary On
Versions: 1 2 3 4 5 6 7 8 9 10 11 12 13 14 15 16 17 18 19 20 21 22 23 24 25
454
FTUS41 KRLX 212328
TAFCKB
TAF
KCKB 212328Z 2200/2224 00000KT P6SM -RA SCT050 BKN090
     FM220200 00000KT P6SM BKN080
     FM221000 00000KT 4SM BR BKN250
     FM221100 00000KT 1SM BR SCT001 BKN250
     FM221300 00000KT 3SM BR SCT250
     FM221400 VRB03KT P6SM BKN250
     FM221700 11006KT P6SM BKN070
     FM222100 10007KT P6SM -RA BKN050=

USA.gov is the U.S. government's official web portal to all federal, state and local government web resources and services.